createdAt,value
2019-05-21T00:00:49.120Z,4.00
2019-05-21T00:01:49.110Z,4.00
2019-05-21T00:02:49.101Z,4.00
2019-05-21T00:03:49.094Z,4.00
2019-05-21T00:04:49.086Z,4.00
2019-05-21T00:05:49.110Z,4.00
2019-05-21T00:06:49.039Z,4.00
2019-05-21T00:07:49.062Z,4.00
2019-05-21T00:08:49.040Z,4.00
2019-05-21T00:09:49.030Z,4.00
2019-05-21T00:10:49.000Z,4.00
2019-05-21T00:11:49.730Z,4.00
2019-05-21T00:12:48.981Z,4.00
2019-05-21T00:13:48.995Z,4.00
2019-05-21T00:14:48.963Z,4.00
2019-05-21T00:15:48.952Z,4.00
2019-05-21T00:16:48.943Z,4.00
2019-05-21T00:17:48.960Z,4.00
2019-05-21T00:18:48.917Z,4.00
2019-05-21T00:19:48.915Z,4.00
2019-05-21T00:20:48.892Z,4.00
2019-05-21T00:21:48.882Z,4.00
2019-05-21T00:22:48.903Z,4.00
2019-05-21T00:23:48.862Z,4.00
2019-05-21T00:24:48.929Z,4.00
2019-05-21T00:25:48.845Z,4.00
2019-05-21T00:26:48.845Z,8.00
2019-05-21T00:27:48.822Z,4.00
2019-05-21T00:28:48.844Z,4.00
2019-05-21T00:29:58.935Z,4.00
2019-05-21T00:30:48.818Z,4.00
2019-05-21T00:31:48.785Z,8.00
2019-05-21T00:32:48.763Z,4.00
2019-05-21T00:33:48.766Z,8.00
2019-05-21T00:34:49.597Z,8.00
2019-05-21T00:35:48.735Z,8.00
2019-05-21T00:36:48.715Z,8.00
2019-05-21T00:37:48.712Z,8.00
2019-05-21T00:38:51.788Z,4.00
2019-05-21T00:39:48.685Z,4.00
2019-05-21T00:40:48.675Z,8.00
2019-05-21T00:41:48.666Z,8.00
2019-05-21T00:42:48.656Z,8.00
2019-05-21T00:43:48.667Z,8.00
2019-05-21T00:44:48.643Z,8.00
2019-05-21T00:45:48.637Z,8.00
2019-05-21T00:46:48.625Z,8.00
2019-05-21T00:47:48.606Z,8.00
2019-05-21T00:48:48.598Z,8.00
2019-05-21T00:49:48.601Z,8.00
2019-05-21T00:50:48.616Z,8.00
2019-05-21T00:51:48.558Z,8.00
2019-05-21T00:52:48.559Z,8.00
2019-05-21T00:53:48.547Z,8.00
2019-05-21T00:54:48.540Z,8.00
2019-05-21T00:55:49.816Z,8.00
2019-05-21T00:56:48.566Z,8.00
2019-05-21T00:57:48.560Z,8.00
2019-05-21T00:58:48.478Z,4.00
2019-05-21T00:59:48.480Z,4.00
2019-05-21T01:00:58.598Z,8.00
2019-05-21T01:01:48.460Z,4.00
2019-05-21T01:02:48.450Z,4.00
2019-05-21T01:03:48.448Z,4.00
2019-05-21T01:05:00.147Z,4.00
2019-05-21T01:05:49.422Z,4.00
2019-05-21T01:06:48.408Z,4.00
2019-05-21T01:07:48.410Z,4.00
2019-05-21T01:08:48.369Z,4.00
2019-05-21T01:09:48.372Z,4.00
2019-05-21T01:10:48.360Z,4.00
2019-05-21T01:11:48.348Z,4.00
2019-05-21T01:12:48.339Z,4.00
2019-05-21T01:13:48.337Z,4.00
2019-05-21T01:14:48.323Z,4.00
2019-05-21T01:15:48.313Z,4.00
2019-05-21T01:16:48.290Z,4.00
2019-05-21T01:17:49.225Z,4.00
2019-05-21T01:18:48.271Z,4.00
2019-05-21T01:19:48.270Z,4.00
2019-05-21T01:20:48.259Z,4.00
2019-05-21T01:21:48.253Z,4.00
2019-05-21T01:22:48.230Z,4.00
2019-05-21T01:23:48.222Z,4.00
2019-05-21T01:24:48.225Z,4.00
2019-05-21T01:25:48.223Z,4.00
2019-05-21T01:26:48.238Z,4.00
2019-05-21T01:27:48.171Z,4.00
2019-05-21T01:28:48.152Z,8.00
2019-05-21T01:29:48.155Z,8.00
2019-05-21T01:30:48.132Z,8.00
2019-05-21T01:31:58.579Z,8.00
2019-05-21T01:32:48.125Z,8.00
2019-05-21T01:33:48.113Z,8.00
2019-05-21T01:34:48.102Z,8.00
2019-05-21T01:35:48.088Z,8.00
2019-05-21T01:36:48.116Z,8.00
2019-05-21T01:37:48.059Z,8.00
2019-05-21T01:38:48.063Z,8.00
2019-05-21T01:39:48.045Z,8.00
2019-05-21T01:40:48.080Z,8.00
2019-05-21T01:41:48.022Z,4.00
2019-05-21T01:42:48.024Z,4.00
2019-05-21T01:43:47.996Z,4.00
2019-05-21T01:44:47.987Z,4.00
2019-05-21T01:45:47.981Z,4.00
2019-05-21T01:46:47.962Z,4.00
2019-05-21T01:47:47.997Z,4.00
2019-05-21T01:48:47.944Z,4.00
2019-05-21T01:49:47.935Z,8.00
2019-05-21T01:50:47.938Z,8.00
2019-05-21T01:51:47.914Z,8.00
2019-05-21T01:52:47.907Z,8.00
2019-05-21T01:53:47.896Z,8.00
2019-05-21T01:54:47.885Z,8.00
2019-05-21T01:55:47.862Z,8.00
2019-05-21T01:56:47.845Z,8.00
2019-05-21T01:57:47.845Z,8.00
2019-05-21T01:58:47.845Z,8.00
2019-05-21T01:59:47.827Z,8.00
2019-05-21T02:00:47.818Z,8.00
2019-05-21T02:01:47.808Z,8.00
2019-05-21T02:02:57.930Z,8.00
2019-05-21T02:03:47.819Z,4.00
2019-05-21T02:04:47.761Z,8.00
2019-05-21T02:05:47.772Z,8.00
2019-05-21T02:06:49.352Z,8.00
2019-05-21T02:07:47.731Z,8.00
2019-05-21T02:08:47.721Z,8.00
2019-05-21T02:09:47.722Z,12.00
2019-05-21T02:10:47.712Z,8.00
2019-05-21T02:11:47.704Z,8.00
2019-05-21T02:12:47.682Z,8.00
2019-05-21T02:13:47.674Z,8.00
2019-05-21T02:14:47.661Z,8.00
2019-05-21T02:15:47.651Z,8.00
2019-05-21T02:16:47.635Z,8.00
2019-05-21T02:17:47.625Z,8.00
2019-05-21T02:18:47.623Z,8.00
2019-05-21T02:19:47.664Z,12.00
2019-05-21T02:20:47.607Z,8.00
2019-05-21T02:21:47.583Z,8.00
2019-05-21T02:22:47.574Z,12.00
2019-05-21T02:23:47.561Z,8.00
2019-05-21T02:24:47.569Z,12.00
2019-05-21T02:25:47.544Z,12.00
2019-05-21T02:26:47.597Z,12.00
2019-05-21T02:27:47.525Z,12.00
2019-05-21T02:28:47.513Z,8.00
2019-05-21T02:29:47.498Z,12.00
2019-05-21T02:30:47.515Z,12.00
2019-05-21T02:31:47.478Z,12.00
2019-05-21T02:32:47.477Z,16.00
2019-05-21T02:33:57.981Z,16.00
2019-05-21T02:34:47.433Z,20.00
2019-05-21T02:35:54.039Z,16.00
2019-05-21T02:36:48.436Z,16.00
2019-05-21T02:37:47.414Z,16.00
2019-05-21T02:38:47.410Z,16.00
2019-05-21T02:39:47.401Z,16.00
2019-05-21T02:40:47.376Z,16.00
2019-05-21T02:41:47.373Z,20.00
2019-05-21T02:42:47.379Z,16.00
2019-05-21T02:43:47.355Z,16.00
2019-05-21T02:44:47.336Z,20.00
2019-05-21T02:45:47.335Z,16.00
2019-05-21T02:46:47.317Z,16.00
2019-05-21T02:47:47.308Z,20.00
2019-05-21T02:48:47.294Z,20.00
2019-05-21T02:49:47.318Z,24.00
2019-05-21T02:50:47.281Z,24.00
2019-05-21T02:51:47.258Z,28.00
2019-05-21T02:52:47.271Z,32.00
2019-05-21T02:53:47.240Z,32.00
2019-05-21T02:54:47.226Z,36.00
2019-05-21T02:55:47.216Z,36.00
2019-05-21T02:56:47.196Z,36.00
2019-05-21T02:57:47.199Z,40.00
2019-05-21T02:58:47.187Z,40.00
2019-05-21T02:59:47.168Z,40.00
2019-05-21T03:00:47.159Z,44.00
2019-05-21T03:01:47.160Z,44.00
2019-05-21T03:02:47.146Z,48.00
2019-05-21T03:03:47.146Z,48.00
2019-05-21T03:04:59.768Z,52.00
2019-05-21T03:05:47.125Z,52.00
2019-05-21T03:06:47.113Z,52.00
2019-05-21T03:07:47.089Z,52.00
2019-05-21T03:08:47.067Z,56.00
2019-05-21T03:09:47.231Z,56.00
2019-05-21T03:10:47.049Z,52.00
2019-05-21T03:11:47.040Z,48.00
2019-05-21T03:12:47.031Z,48.00
2019-05-21T03:13:47.039Z,48.00
2019-05-21T03:14:47.047Z,44.00
2019-05-21T03:15:47.011Z,40.00
2019-05-21T03:16:47.003Z,40.00
2019-05-21T03:17:46.970Z,36.00
2019-05-21T03:18:46.976Z,40.00
2019-05-21T03:19:46.983Z,36.00
2019-05-21T03:20:46.950Z,32.00
2019-05-21T03:21:47.003Z,36.00
2019-05-21T03:22:46.922Z,32.00
2019-05-21T03:23:46.914Z,32.00
2019-05-21T03:24:46.901Z,32.00
2019-05-21T03:25:46.902Z,32.00
2019-05-21T03:26:46.891Z,28.00
2019-05-21T03:27:46.867Z,28.00
2019-05-21T03:28:46.852Z,28.00
2019-05-21T03:29:46.851Z,28.00
2019-05-21T03:30:46.845Z,28.00
2019-05-21T03:31:46.832Z,32.00
2019-05-21T03:32:46.886Z,32.00
2019-05-21T03:33:46.815Z,36.00
2019-05-21T03:34:46.800Z,36.00
2019-05-21T03:35:57.526Z,36.00
2019-05-21T03:36:46.802Z,40.00
2019-05-21T03:37:46.751Z,40.00
2019-05-21T03:38:46.748Z,40.00
2019-05-21T03:39:46.734Z,44.00
2019-05-21T03:40:46.722Z,48.00
2019-05-21T03:41:46.709Z,48.00
2019-05-21T03:42:46.711Z,56.00
2019-05-21T03:43:46.692Z,56.00
2019-05-21T03:44:58.976Z,60.00
2019-05-21T03:45:47.671Z,64.00
2019-05-21T03:46:46.684Z,68.00
2019-05-21T03:47:46.681Z,72.00
2019-05-21T03:48:46.632Z,80.00
2019-05-21T03:49:46.633Z,88.00
2019-05-21T03:50:46.622Z,92.00
2019-05-21T03:51:46.614Z,100.00
2019-05-21T03:52:46.603Z,108.00
2019-05-21T03:53:46.603Z,112.00
2019-05-21T03:54:46.586Z,116.00
2019-05-21T03:55:46.615Z,124.00
2019-05-21T03:56:46.571Z,128.00
2019-05-21T03:57:46.581Z,132.00
2019-05-21T03:58:46.538Z,136.00
2019-05-21T03:59:46.526Z,140.00
2019-05-21T04:00:46.504Z,144.00
2019-05-21T04:01:46.503Z,144.00
2019-05-21T04:02:46.492Z,148.00
2019-05-21T04:03:46.486Z,152.00
2019-05-21T04:04:46.489Z,156.00
2019-05-21T04:05:46.457Z,160.00
2019-05-21T04:06:57.447Z,164.00
2019-05-21T04:07:46.438Z,168.00
2019-05-21T04:08:46.470Z,172.00
2019-05-21T04:09:46.406Z,176.00
2019-05-21T04:10:46.420Z,184.00
2019-05-21T04:11:46.407Z,212.00
2019-05-21T04:12:46.399Z,228.00
2019-05-21T04:13:46.369Z,248.00
2019-05-21T04:14:46.399Z,252.00
2019-05-21T04:15:46.348Z,232.00
2019-05-21T04:16:46.348Z,264.00
2019-05-21T04:17:46.346Z,260.00
2019-05-21T04:18:46.359Z,252.00
2019-05-21T04:19:46.314Z,248.00
2019-05-21T04:20:46.301Z,256.00
2019-05-21T04:21:46.316Z,264.00
2019-05-21T04:22:46.281Z,312.00
2019-05-21T04:23:46.258Z,288.00
2019-05-21T04:24:46.259Z,268.00
2019-05-21T04:25:46.283Z,268.00
2019-05-21T04:26:46.233Z,388.00
2019-05-21T04:27:46.223Z,284.00
2019-05-21T04:28:46.199Z,248.00
2019-05-21T04:29:46.192Z,240.00
2019-05-21T04:30:46.202Z,236.00
2019-05-21T04:31:46.178Z,240.00
2019-05-21T04:32:46.160Z,240.00
2019-05-21T04:33:46.159Z,244.00
2019-05-21T04:34:46.131Z,352.00
2019-05-21T04:35:46.131Z,440.00
2019-05-21T04:36:46.173Z,252.00
2019-05-21T04:37:56.068Z,248.00
2019-05-21T04:38:46.101Z,252.00
2019-05-21T04:39:46.089Z,268.00
2019-05-21T04:40:46.082Z,284.00
2019-05-21T04:41:46.103Z,292.00
2019-05-21T04:42:46.069Z,296.00
2019-05-21T04:43:46.050Z,300.00
2019-05-21T04:44:46.045Z,308.00
2019-05-21T04:45:46.012Z,316.00
2019-05-21T04:46:46.015Z,328.00
2019-05-21T04:47:45.994Z,340.00
2019-05-21T04:48:45.993Z,348.00
2019-05-21T04:49:45.989Z,372.00
2019-05-21T04:50:45.963Z,640.00
2019-05-21T04:51:45.950Z,420.00
2019-05-21T04:52:45.963Z,424.00
2019-05-21T04:53:45.935Z,488.00
2019-05-21T04:54:45.921Z,592.00
2019-05-21T04:55:45.902Z,488.00
2019-05-21T04:56:45.905Z,496.00
2019-05-21T04:57:45.904Z,680.00
2019-05-21T04:58:45.882Z,640.00
2019-05-21T04:59:45.878Z,692.00
2019-05-21T05:00:45.876Z,760.00
2019-05-21T05:01:45.980Z,912.00
2019-05-21T05:02:45.845Z,820.00
2019-05-21T05:03:45.853Z,636.00
2019-05-21T05:04:45.825Z,368.00
2019-05-21T05:05:45.803Z,272.00
2019-05-21T05:06:45.796Z,228.00
2019-05-21T05:07:45.797Z,212.00
2019-05-21T05:08:56.619Z,200.00
2019-05-21T05:09:45.761Z,196.00
2019-05-21T05:10:45.749Z,196.00
2019-05-21T05:11:45.730Z,196.00
2019-05-21T05:12:45.730Z,200.00
2019-05-21T05:13:45.713Z,200.00
2019-05-21T05:14:45.731Z,200.00
2019-05-21T05:15:45.695Z,196.00
2019-05-21T05:16:45.671Z,200.00
2019-05-21T05:17:45.661Z,208.00
2019-05-21T05:18:45.715Z,212.00
2019-05-21T05:19:45.642Z,204.00
2019-05-21T05:20:45.681Z,204.00
2019-05-21T05:21:45.633Z,208.00
2019-05-21T05:22:45.611Z,212.00
2019-05-21T05:23:45.603Z,220.00
2019-05-21T05:24:45.594Z,224.00
2019-05-21T05:25:45.592Z,244.00
2019-05-21T05:26:45.592Z,256.00
2019-05-21T05:27:45.564Z,260.00
2019-05-21T05:28:45.637Z,256.00
2019-05-21T05:29:45.563Z,248.00
2019-05-21T05:30:45.546Z,252.00
2019-05-21T05:31:45.555Z,292.00
2019-05-21T05:32:45.535Z,208.00
2019-05-21T05:33:45.516Z,192.00
2019-05-21T05:34:45.498Z,188.00
2019-05-21T05:35:45.471Z,188.00
2019-05-21T05:36:45.457Z,192.00
2019-05-21T05:37:48.709Z,196.00
2019-05-21T05:38:45.442Z,204.00
2019-05-21T05:39:57.421Z,216.00
2019-05-21T05:40:45.434Z,220.00
2019-05-21T05:41:45.419Z,216.00
2019-05-21T05:42:45.404Z,196.00
2019-05-21T05:43:45.399Z,216.00
2019-05-21T05:44:45.404Z,236.00
2019-05-21T05:45:45.375Z,244.00
2019-05-21T05:46:45.352Z,248.00
2019-05-21T05:47:45.392Z,256.00
2019-05-21T05:48:45.341Z,264.00
2019-05-21T05:49:45.312Z,276.00
2019-05-21T05:50:45.313Z,292.00
2019-05-21T05:51:45.314Z,308.00
2019-05-21T05:52:45.307Z,336.00
2019-05-21T05:53:45.314Z,352.00
2019-05-21T05:54:45.262Z,376.00
2019-05-21T05:55:45.252Z,404.00
2019-05-21T05:56:45.245Z,884.00
2019-05-21T05:57:45.291Z,600.00
2019-05-21T05:58:45.271Z,640.00
2019-05-21T05:59:45.266Z,800.00
2019-05-21T06:00:45.209Z,500.00
2019-05-21T06:01:45.185Z,652.00
2019-05-21T06:02:45.175Z,768.00
2019-05-21T06:03:45.167Z,872.00
2019-05-21T06:04:45.168Z,616.00
2019-05-21T06:05:45.166Z,620.00
2019-05-21T06:06:45.138Z,616.00
2019-05-21T06:07:58.814Z,780.00
2019-05-21T06:08:46.119Z,808.00
2019-05-21T06:09:45.111Z,832.00
2019-05-21T06:10:55.760Z,892.00
2019-05-21T06:11:45.082Z,904.00
2019-05-21T06:12:45.145Z,524.00
2019-05-21T06:13:45.054Z,908.00
2019-05-21T06:14:45.054Z,464.00
2019-05-21T06:15:45.045Z,460.00
2019-05-21T06:16:45.056Z,560.00
2019-05-21T06:17:45.044Z,384.00
2019-05-21T06:18:45.014Z,364.00
2019-05-21T06:19:45.004Z,376.00
2019-05-21T06:20:44.987Z,400.00
2019-05-21T06:21:44.977Z,780.00
2019-05-21T06:22:44.957Z,684.00
2019-05-21T06:23:45.001Z,740.00
2019-05-21T06:24:44.944Z,792.00
2019-05-21T06:25:44.926Z,852.00
2019-05-21T06:26:44.926Z,884.00
2019-05-21T06:27:44.938Z,920.00
2019-05-21T06:28:44.895Z,920.00
2019-05-21T06:29:44.909Z,976.00
2019-05-21T06:30:44.876Z,1020.00
2019-05-21T06:31:44.900Z,820.00
2019-05-21T06:32:44.857Z,740.00
2019-05-21T06:33:44.872Z,872.00
2019-05-21T06:34:44.859Z,752.00
2019-05-21T06:35:44.840Z,756.00
2019-05-21T06:36:44.807Z,860.00
2019-05-21T06:37:44.810Z,1076.00
2019-05-21T06:38:44.798Z,1080.00
2019-05-21T06:39:44.777Z,1048.00
2019-05-21T06:40:44.780Z,1200.00
2019-05-21T06:41:56.850Z,1164.00
2019-05-21T06:42:44.766Z,1244.00
2019-05-21T06:43:44.763Z,1296.00
2019-05-21T06:44:44.741Z,868.00
2019-05-21T06:45:44.747Z,640.00
2019-05-21T06:46:44.707Z,624.00
2019-05-21T06:47:44.677Z,652.00
2019-05-21T06:48:44.687Z,692.00
2019-05-21T06:49:44.682Z,668.00
2019-05-21T06:50:44.648Z,1196.00
2019-05-21T06:51:44.649Z,1164.00
2019-05-21T06:52:44.652Z,1164.00
2019-05-21T06:53:44.714Z,812.00
2019-05-21T06:54:44.622Z,980.00
2019-05-21T06:55:44.611Z,1148.00
2019-05-21T06:56:44.598Z,1152.00
2019-05-21T06:57:44.593Z,1260.00
2019-05-21T06:58:44.574Z,1292.00
2019-05-21T06:59:44.581Z,1288.00
2019-05-21T07:00:44.563Z,1320.00
2019-05-21T07:01:44.549Z,1340.00
2019-05-21T07:02:44.529Z,1312.00
2019-05-21T07:03:44.535Z,1284.00
2019-05-21T07:04:44.510Z,1196.00
2019-05-21T07:05:58.493Z,1032.00
2019-05-21T07:06:45.492Z,560.00
2019-05-21T07:07:44.475Z,508.00
2019-05-21T07:08:44.473Z,488.00
2019-05-21T07:09:44.453Z,468.00
2019-05-21T07:10:44.463Z,460.00
2019-05-21T07:11:44.430Z,476.00
2019-05-21T07:12:55.033Z,464.00
2019-05-21T07:13:44.410Z,392.00
2019-05-21T07:14:44.392Z,496.00
2019-05-21T07:15:44.403Z,556.00
2019-05-21T07:16:44.383Z,484.00
2019-05-21T07:17:44.372Z,488.00
2019-05-21T07:18:44.365Z,516.00
2019-05-21T07:19:44.355Z,544.00
2019-05-21T07:20:44.356Z,620.00
2019-05-21T07:21:44.390Z,552.00
2019-05-21T07:22:44.387Z,716.00
2019-05-21T07:23:44.302Z,528.00
2019-05-21T07:24:44.285Z,508.00
2019-05-21T07:25:44.352Z,480.00
2019-05-21T07:26:44.311Z,472.00
2019-05-21T07:27:44.271Z,448.00
2019-05-21T07:28:44.267Z,436.00
2019-05-21T07:29:44.245Z,436.00
2019-05-21T07:30:44.364Z,452.00
2019-05-21T07:31:44.214Z,464.00
2019-05-21T07:32:44.274Z,472.00
2019-05-21T07:33:44.193Z,492.00
2019-05-21T07:34:44.410Z,504.00
2019-05-21T07:35:44.177Z,516.00
2019-05-21T07:36:44.172Z,536.00
2019-05-21T07:37:44.179Z,644.00
2019-05-21T07:38:53.414Z,1360.00
2019-05-21T07:39:45.124Z,584.00
2019-05-21T07:40:44.120Z,600.00
2019-05-21T07:41:44.120Z,616.00
2019-05-21T07:42:44.106Z,568.00
2019-05-21T07:43:54.396Z,608.00
2019-05-21T07:44:44.084Z,616.00
2019-05-21T07:45:44.106Z,1240.00
2019-05-21T07:46:44.055Z,1064.00
2019-05-21T07:47:44.047Z,1416.00
2019-05-21T07:48:44.033Z,1380.00
2019-05-21T07:49:44.071Z,1356.00
2019-05-21T07:50:44.043Z,1352.00
2019-05-21T07:51:44.029Z,1348.00
2019-05-21T07:52:44.006Z,1336.00
2019-05-21T07:53:43.981Z,1324.00
2019-05-21T07:54:43.956Z,1324.00
2019-05-21T07:55:43.965Z,1320.00
2019-05-21T07:56:43.946Z,1324.00
2019-05-21T07:57:43.940Z,1324.00
2019-05-21T07:58:43.919Z,1312.00
2019-05-21T07:59:43.911Z,1312.00
2019-05-21T08:00:43.929Z,1312.00
2019-05-21T08:01:43.877Z,1312.00
2019-05-21T08:02:43.891Z,1320.00
2019-05-21T08:03:43.858Z,1344.00
2019-05-21T08:04:43.871Z,1308.00
2019-05-21T08:05:43.854Z,1316.00
2019-05-21T08:06:44.156Z,1312.00
2019-05-21T08:07:43.841Z,1320.00
2019-05-21T08:08:43.826Z,1332.00
2019-05-21T08:09:43.819Z,1300.00
2019-05-21T08:10:43.835Z,1284.00
2019-05-21T08:11:46.577Z,1288.00
2019-05-21T08:12:43.795Z,1312.00
2019-05-21T08:13:43.757Z,1332.00
2019-05-21T08:14:54.144Z,1320.00
2019-05-21T08:15:43.741Z,1320.00
2019-05-21T08:16:43.732Z,1340.00
2019-05-21T08:17:43.744Z,1340.00
2019-05-21T08:18:43.737Z,1344.00
2019-05-21T08:19:43.693Z,1348.00
2019-05-21T08:20:43.698Z,1308.00
2019-05-21T08:21:43.676Z,1252.00
2019-05-21T08:22:43.697Z,1272.00
2019-05-21T08:23:43.644Z,1288.00
2019-05-21T08:24:43.664Z,1284.00
2019-05-21T08:25:43.632Z,1304.00
2019-05-21T08:26:43.616Z,1304.00
2019-05-21T08:27:44.116Z,1328.00
2019-05-21T08:28:43.687Z,1268.00
2019-05-21T08:29:43.592Z,1120.00
2019-05-21T08:30:43.581Z,1372.00
2019-05-21T08:31:43.574Z,772.00
2019-05-21T08:32:43.554Z,724.00
2019-05-21T08:33:43.551Z,1132.00
2019-05-21T08:34:43.558Z,700.00
2019-05-21T08:35:43.571Z,780.00
2019-05-21T08:36:43.505Z,776.00
2019-05-21T08:37:43.518Z,912.00
2019-05-21T08:38:43.507Z,900.00
2019-05-21T08:39:43.501Z,752.00
2019-05-21T08:40:43.485Z,960.00
2019-05-21T08:41:43.571Z,768.00
2019-05-21T08:42:43.468Z,832.00
2019-05-21T08:43:43.437Z,836.00
2019-05-21T08:44:43.613Z,896.00
2019-05-21T08:45:53.800Z,800.00
2019-05-21T08:46:43.442Z,860.00
2019-05-21T08:47:43.471Z,908.00
2019-05-21T08:48:43.390Z,784.00
2019-05-21T08:49:44.261Z,768.00
2019-05-21T08:50:43.383Z,840.00
2019-05-21T08:51:43.392Z,596.00
2019-05-21T08:52:43.344Z,1036.00
2019-05-21T08:53:43.343Z,848.00
2019-05-21T08:54:43.449Z,896.00
2019-05-21T08:55:43.323Z,996.00
2019-05-21T08:56:43.322Z,840.00
2019-05-21T08:57:43.281Z,876.00
2019-05-21T08:58:43.281Z,908.00
2019-05-21T08:59:43.273Z,704.00
2019-05-21T09:00:43.272Z,696.00
2019-05-21T09:01:43.297Z,656.00
2019-05-21T09:02:43.235Z,672.00
2019-05-21T09:03:43.223Z,656.00
2019-05-21T09:04:48.063Z,660.00
2019-05-21T09:05:43.208Z,740.00
2019-05-21T09:06:43.206Z,1404.00
2019-05-21T09:07:43.197Z,752.00
2019-05-21T09:08:43.223Z,784.00
2019-05-21T09:09:49.733Z,812.00
2019-05-21T09:10:44.154Z,768.00
2019-05-21T09:11:43.144Z,812.00
2019-05-21T09:12:43.147Z,792.00
2019-05-21T09:13:43.115Z,936.00
2019-05-21T09:14:43.115Z,796.00
2019-05-21T09:15:43.121Z,1244.00
2019-05-21T09:16:53.452Z,800.00
2019-05-21T09:17:43.101Z,744.00
2019-05-21T09:18:43.205Z,1224.00
2019-05-21T09:19:43.073Z,780.00
2019-05-21T09:20:43.040Z,704.00
2019-05-21T09:21:43.034Z,736.00
2019-05-21T09:22:43.029Z,708.00
2019-05-21T09:23:43.037Z,700.00
2019-05-21T09:24:43.164Z,740.00
2019-05-21T09:25:43.166Z,668.00
2019-05-21T09:26:43.173Z,784.00
2019-05-21T09:27:43.173Z,660.00
2019-05-21T09:28:43.025Z,1084.00
2019-05-21T09:29:43.034Z,656.00
2019-05-21T09:30:43.088Z,700.00
2019-05-21T09:31:43.008Z,644.00
2019-05-21T09:32:42.914Z,688.00
2019-05-21T09:33:42.984Z,632.00
2019-05-21T09:34:48.563Z,652.00
2019-05-21T09:35:43.895Z,632.00
2019-05-21T09:36:42.876Z,956.00
2019-05-21T09:37:42.863Z,632.00
2019-05-21T09:38:42.854Z,664.00
2019-05-21T09:39:42.887Z,660.00
2019-05-21T09:40:42.832Z,764.00
2019-05-21T09:41:42.845Z,912.00
2019-05-21T09:42:45.205Z,764.00
2019-05-21T09:43:42.807Z,740.00
2019-05-21T09:44:42.786Z,756.00
2019-05-21T09:45:42.796Z,752.00
2019-05-21T09:46:42.774Z,808.00
2019-05-21T09:47:54.418Z,868.00
2019-05-21T09:48:42.762Z,728.00
2019-05-21T09:49:42.745Z,780.00
2019-05-21T09:50:42.723Z,664.00
2019-05-21T09:51:42.793Z,1424.00
2019-05-21T09:52:42.714Z,684.00
2019-05-21T09:53:42.719Z,732.00
2019-05-21T09:54:42.685Z,836.00
2019-05-21T09:55:42.686Z,772.00
2019-05-21T09:56:42.676Z,720.00
2019-05-21T09:57:42.667Z,1416.00
2019-05-21T09:58:42.656Z,688.00
2019-05-21T09:59:42.633Z,684.00
2019-05-21T10:00:42.616Z,876.00
2019-05-21T10:01:47.293Z,716.00
2019-05-21T10:02:43.608Z,896.00
2019-05-21T10:03:42.633Z,764.00
2019-05-21T10:04:42.585Z,1132.00
2019-05-21T10:05:42.577Z,1436.00
2019-05-21T10:06:42.604Z,752.00
2019-05-21T10:07:42.556Z,808.00
2019-05-21T10:08:42.550Z,1160.00
2019-05-21T10:09:42.538Z,768.00
2019-05-21T10:10:42.506Z,916.00
2019-05-21T10:11:42.509Z,1368.00
2019-05-21T10:12:42.538Z,860.00
2019-05-21T10:13:42.496Z,816.00
2019-05-21T10:14:42.467Z,768.00
2019-05-21T10:15:42.511Z,932.00
2019-05-21T10:16:42.471Z,724.00
2019-05-21T10:17:42.447Z,684.00
2019-05-21T10:18:53.542Z,716.00
2019-05-21T10:19:42.420Z,1160.00
2019-05-21T10:20:42.406Z,704.00
2019-05-21T10:21:42.454Z,640.00
2019-05-21T10:22:42.378Z,656.00
2019-05-21T10:23:42.393Z,1464.00
2019-05-21T10:24:42.370Z,852.00
2019-05-21T10:25:42.352Z,648.00
2019-05-21T10:26:42.341Z,660.00
2019-05-21T10:27:42.332Z,1072.00
2019-05-21T10:28:42.344Z,1492.00
2019-05-21T10:29:42.311Z,712.00
2019-05-21T10:30:42.337Z,984.00
2019-05-21T10:31:42.313Z,772.00
2019-05-21T10:32:42.284Z,660.00
2019-05-21T10:33:42.303Z,756.00
2019-05-21T10:34:42.267Z,976.00
2019-05-21T10:35:42.256Z,628.00
2019-05-21T10:36:42.233Z,704.00
2019-05-21T10:37:53.942Z,1008.00
2019-05-21T10:38:43.255Z,1016.00
2019-05-21T10:39:42.215Z,1328.00
2019-05-21T10:40:42.193Z,1020.00
2019-05-21T10:41:45.833Z,952.00
2019-05-21T10:42:42.190Z,716.00
2019-05-21T10:43:42.226Z,1280.00
2019-05-21T10:44:42.165Z,1256.00
2019-05-21T10:45:42.146Z,596.00
2019-05-21T10:46:42.125Z,1132.00
2019-05-21T10:47:42.105Z,1260.00
2019-05-21T10:48:42.105Z,1232.00
2019-05-21T10:49:53.282Z,740.00
2019-05-21T10:50:42.082Z,1296.00
2019-05-21T10:51:42.072Z,708.00
2019-05-21T10:52:42.052Z,676.00
2019-05-21T10:53:42.066Z,1020.00
2019-05-21T10:54:42.038Z,1312.00
2019-05-21T10:55:42.074Z,1352.00
2019-05-21T10:56:48.024Z,1368.00
2019-05-21T10:57:43.004Z,924.00
2019-05-21T10:58:42.006Z,1312.00
2019-05-21T10:59:41.986Z,1360.00
2019-05-21T11:00:41.977Z,1160.00
2019-05-21T11:01:41.977Z,1088.00
2019-05-21T11:02:41.955Z,1012.00
2019-05-21T11:03:41.959Z,1036.00
2019-05-21T11:04:41.940Z,844.00
2019-05-21T11:05:41.932Z,720.00
2019-05-21T11:06:41.918Z,708.00
2019-05-21T11:07:41.887Z,680.00
2019-05-21T11:08:41.899Z,656.00
2019-05-21T11:09:41.922Z,616.00
2019-05-21T11:10:41.874Z,584.00
2019-05-21T11:11:41.870Z,572.00
2019-05-21T11:12:41.850Z,532.00
2019-05-21T11:13:41.858Z,496.00
2019-05-21T11:14:41.830Z,480.00
2019-05-21T11:15:41.851Z,480.00
2019-05-21T11:16:41.817Z,552.00
2019-05-21T11:17:58.920Z,596.00
2019-05-21T11:18:42.827Z,580.00
2019-05-21T11:19:41.759Z,564.00
2019-05-21T11:20:52.029Z,532.00
2019-05-21T11:21:41.748Z,492.00
2019-05-21T11:22:41.726Z,492.00
2019-05-21T11:23:41.745Z,476.00
2019-05-21T11:24:41.720Z,460.00
2019-05-21T11:25:41.727Z,452.00
2019-05-21T11:26:41.735Z,440.00
2019-05-21T11:27:41.691Z,440.00
2019-05-21T11:28:41.668Z,444.00
2019-05-21T11:29:41.670Z,460.00
2019-05-21T11:30:41.651Z,480.00
2019-05-21T11:31:55.893Z,512.00
2019-05-21T11:32:42.640Z,524.00
2019-05-21T11:33:41.621Z,540.00
2019-05-21T11:34:41.610Z,544.00
2019-05-21T11:35:41.610Z,548.00
2019-05-21T11:36:41.600Z,536.00
2019-05-21T11:37:41.595Z,520.00
2019-05-21T11:38:41.572Z,556.00
2019-05-21T11:39:41.552Z,664.00
2019-05-21T11:40:41.543Z,708.00
2019-05-21T11:41:41.530Z,896.00
2019-05-21T11:42:41.543Z,924.00
2019-05-21T11:43:41.610Z,852.00
2019-05-21T11:44:41.499Z,1172.00
2019-05-21T11:45:41.492Z,1192.00
2019-05-21T11:46:41.481Z,1188.00
2019-05-21T11:47:41.476Z,1192.00
2019-05-21T11:48:41.502Z,1184.00
2019-05-21T11:49:41.498Z,1132.00
2019-05-21T11:50:41.445Z,1024.00
2019-05-21T11:51:51.407Z,1052.00
2019-05-21T11:52:41.433Z,884.00
2019-05-21T11:53:41.405Z,724.00
2019-05-21T11:54:41.385Z,660.00
2019-05-21T11:55:41.384Z,1144.00
2019-05-21T11:56:41.364Z,828.00
2019-05-21T11:57:41.355Z,1112.00
2019-05-21T11:58:41.359Z,624.00
2019-05-21T11:59:41.386Z,620.00
2019-05-21T12:00:41.352Z,1156.00
2019-05-21T12:01:41.319Z,1124.00
2019-05-21T12:02:41.307Z,860.00
2019-05-21T12:03:41.299Z,872.00
2019-05-21T12:04:41.285Z,1056.00
2019-05-21T12:05:41.277Z,1056.00
2019-05-21T12:06:41.384Z,1100.00
2019-05-21T12:07:41.237Z,1088.00
2019-05-21T12:08:55.443Z,1040.00
2019-05-21T12:09:42.247Z,932.00
2019-05-21T12:10:41.235Z,804.00
2019-05-21T12:11:41.209Z,732.00
2019-05-21T12:12:41.196Z,764.00
2019-05-21T12:13:41.178Z,604.00
2019-05-21T12:14:41.171Z,600.00
2019-05-21T12:15:41.171Z,504.00
2019-05-21T12:16:41.152Z,480.00
2019-05-21T12:17:41.141Z,480.00
2019-05-21T12:18:41.130Z,504.00
2019-05-21T12:19:41.109Z,840.00
2019-05-21T12:20:41.123Z,540.00
2019-05-21T12:21:41.090Z,552.00
2019-05-21T12:22:51.144Z,520.00
2019-05-21T12:23:41.074Z,472.00
2019-05-21T12:24:41.064Z,476.00
2019-05-21T12:25:41.053Z,456.00
2019-05-21T12:26:41.044Z,460.00
2019-05-21T12:27:41.036Z,452.00
2019-05-21T12:28:41.032Z,496.00
2019-05-21T12:29:41.015Z,468.00
2019-05-21T12:30:41.006Z,440.00
2019-05-21T12:31:41.006Z,436.00
2019-05-21T12:32:40.978Z,432.00
2019-05-21T12:33:40.978Z,432.00
2019-05-21T12:34:40.959Z,428.00
2019-05-21T12:35:40.946Z,432.00
2019-05-21T12:36:40.956Z,444.00